createdAt,value
2024-01-19T00:00:52.168Z,101666.50
2024-01-19T00:03:18.873Z,101669.13
2024-01-19T00:05:45.780Z,101678.53
2024-01-19T00:08:12.626Z,101677.56
2024-01-19T00:10:39.469Z,101676.97
2024-01-19T00:13:06.282Z,101686.28
2024-01-19T00:15:39.431Z,101678.53
2024-01-19T00:18:09.162Z,101683.63
2024-01-19T00:20:35.927Z,101673.25
2024-01-19T00:23:02.650Z,101677.50
2024-01-19T00:25:29.274Z,101680.97
2024-01-19T00:27:56.057Z,101685.19
2024-01-19T00:30:22.756Z,101676.69
2024-01-19T00:32:49.518Z,101681.72
2024-01-19T00:35:17.912Z,101683.28
2024-01-19T00:37:46.278Z,101685.94
2024-01-19T00:40:13.410Z,101682.31
2024-01-19T00:42:41.641Z,101666.44
2024-01-19T00:45:09.991Z,101689.59
2024-01-19T00:47:37.092Z,101703.50
2024-01-19T00:50:05.917Z,101710.16
2024-01-19T00:52:32.593Z,101717.03
2024-01-19T00:54:59.215Z,101718.69
2024-01-19T00:57:25.923Z,101716.06
2024-01-19T00:59:52.701Z,101717.72
2024-01-19T01:02:20.589Z,101719.56
2024-01-19T01:04:50.141Z,101726.34
2024-01-19T01:07:16.833Z,101721.69
2024-01-19T01:09:43.557Z,101723.69
2024-01-19T01:12:10.327Z,101737.41
2024-01-19T01:14:37.133Z,101721.78
2024-01-19T01:17:04.097Z,101726.88
2024-01-19T01:19:30.930Z,101720.88
2024-01-19T01:21:57.672Z,101733.00
2024-01-19T01:24:24.438Z,101732.13
2024-01-19T01:26:51.223Z,101721.59
2024-01-19T01:29:18.122Z,101734.75
2024-01-19T01:31:44.934Z,101723.34
2024-01-19T01:34:11.686Z,101738.97
2024-01-19T01:36:38.433Z,101733.53
2024-01-19T01:39:05.279Z,101743.09
2024-01-19T01:41:31.982Z,101747.41
2024-01-19T01:43:58.648Z,101746.47
2024-01-19T01:46:25.787Z,101762.69
2024-01-19T01:48:52.898Z,101753.13
2024-01-19T01:51:19.789Z,101751.56
2024-01-19T01:53:46.685Z,101751.34
2024-01-19T01:56:13.615Z,101754.09
2024-01-19T01:58:40.688Z,101753.03
2024-01-19T02:01:07.603Z,101737.28
2024-01-19T02:03:35.793Z,101752.34
2024-01-19T02:06:02.960Z,101748.56
2024-01-19T02:08:29.893Z,101749.44
2024-01-19T02:10:56.750Z,101760.66
2024-01-19T02:13:23.519Z,101757.06
2024-01-19T02:15:50.095Z,101760.41
2024-01-19T02:18:16.924Z,101779.28
2024-01-19T02:20:43.714Z,101782.69
2024-01-19T02:23:14.753Z,101764.97
2024-01-19T02:25:41.547Z,101779.22
2024-01-19T02:28:08.677Z,101777.25
2024-01-19T02:30:35.903Z,101782.44
2024-01-19T02:33:04.021Z,101769.25
2024-01-19T02:35:30.786Z,101779.53
2024-01-19T02:37:57.681Z,101789.72
2024-01-19T02:40:24.372Z,101792.16
2024-01-19T02:42:51.020Z,101785.94
2024-01-19T02:45:17.757Z,101798.94
2024-01-19T02:47:44.541Z,101792.69
2024-01-19T02:50:11.420Z,101791.03
2024-01-19T02:52:38.187Z,101804.75
2024-01-19T02:55:05.988Z,101808.84
2024-01-19T02:57:32.697Z,101804.66
2024-01-19T03:00:00.546Z,101816.41
2024-01-19T03:02:27.470Z,101810.25
2024-01-19T03:04:54.268Z,101806.56
2024-01-19T03:07:20.964Z,101818.78
2024-01-19T03:09:47.788Z,101819.56
2024-01-19T03:12:14.514Z,101828.78
2024-01-19T03:14:41.908Z,101824.38
2024-01-19T03:17:08.526Z,101820.84
2024-01-19T03:19:35.349Z,101834.38
2024-01-19T03:22:02.041Z,101825.00
2024-01-19T03:24:30.470Z,101827.34
2024-01-19T03:26:57.162Z,101830.00
2024-01-19T03:29:24.621Z,101834.09
2024-01-19T03:31:51.379Z,101830.50
2024-01-19T03:34:18.050Z,101831.13
2024-01-19T03:36:44.683Z,101842.13
2024-01-19T03:39:11.422Z,101828.56
2024-01-19T03:41:38.126Z,101842.97
2024-01-19T03:44:04.865Z,101837.66
2024-01-19T03:46:31.582Z,101827.00
2024-01-19T03:48:58.263Z,101847.69
2024-01-19T03:51:24.896Z,101836.25
2024-01-19T03:53:51.981Z,101838.88
2024-01-19T03:56:19.779Z,101844.56
2024-01-19T03:58:46.429Z,101852.47
2024-01-19T04:01:13.435Z,101855.81
2024-01-19T04:03:40.766Z,101848.75
2024-01-19T04:06:07.641Z,101862.47
2024-01-19T04:08:34.512Z,101862.47
2024-01-19T04:11:01.202Z,101866.66
2024-01-19T04:13:27.869Z,101874.19
2024-01-19T04:15:54.484Z,101857.88
2024-01-19T04:18:22.010Z,101864.47
2024-01-19T04:20:48.718Z,101863.84
2024-01-19T04:23:17.480Z,101874.19
2024-01-19T04:25:44.292Z,101878.41
2024-01-19T04:28:10.954Z,101881.06
2024-01-19T04:30:37.565Z,101876.84
2024-01-19T04:33:04.530Z,101881.06
2024-01-19T04:35:31.221Z,101868.72
2024-01-19T04:37:58.084Z,101881.06
2024-01-19T04:40:25.035Z,101877.63
2024-01-19T04:42:51.705Z,101877.34
2024-01-19T04:45:18.374Z,101875.59
2024-01-19T04:47:45.143Z,101875.41
2024-01-19T04:50:11.809Z,101887.53
2024-01-19T04:52:38.459Z,101886.53
2024-01-19T04:55:05.433Z,101873.44
2024-01-19T04:57:32.108Z,101878.53
2024-01-19T04:59:58.836Z,101890.69
2024-01-19T05:02:25.933Z,101900.06
2024-01-19T05:04:52.734Z,101890.28
2024-01-19T05:07:19.507Z,101894.59
2024-01-19T05:09:47.158Z,101912.59
2024-01-19T05:12:14.050Z,101898.50
2024-01-19T05:14:40.693Z,101910.75
2024-01-19T05:17:07.354Z,101911.59
2024-01-19T05:19:34.063Z,101897.66
2024-01-19T05:22:00.793Z,101916.63
2024-01-19T05:24:27.401Z,101915.72
2024-01-19T05:26:54.298Z,101911.41
2024-01-19T05:29:21.056Z,101912.09
2024-01-19T05:31:47.745Z,101919.06
2024-01-19T05:34:15.656Z,101901.47
2024-01-19T05:36:43.193Z,101929.91
2024-01-19T05:39:09.912Z,101921.50
2024-01-19T05:41:36.605Z,101928.06
2024-01-19T05:44:03.346Z,101914.97
2024-01-19T05:46:29.991Z,101914.97
2024-01-19T05:48:58.363Z,101934.69
2024-01-19T05:51:25.706Z,101931.97
2024-01-19T05:53:52.445Z,101929.44
2024-01-19T05:56:19.155Z,101921.41
2024-01-19T05:58:45.840Z,101943.72
2024-01-19T06:01:12.813Z,101938.63
2024-01-19T06:03:40.095Z,101934.22
2024-01-19T06:06:06.992Z,101943.59
2024-01-19T06:08:34.053Z,101943.59
2024-01-19T06:11:00.845Z,101947.72
2024-01-19T06:13:27.548Z,101927.38
2024-01-19T06:15:54.306Z,101958.78
2024-01-19T06:18:21.051Z,101950.34
2024-01-19T06:20:47.811Z,101958.09
2024-01-19T06:23:14.894Z,101956.13
2024-01-19T06:25:42.045Z,101961.41
2024-01-19T06:28:08.897Z,101946.47
2024-01-19T06:30:35.671Z,101962.09
2024-01-19T06:33:06.656Z,101970.81
2024-01-19T06:35:33.729Z,101983.53
2024-01-19T06:38:00.587Z,101994.56
2024-01-19T06:40:27.370Z,101986.84
2024-01-19T06:42:54.154Z,101973.66
2024-01-19T06:45:21.146Z,101992.53
2024-01-19T06:47:47.996Z,101995.25
2024-01-19T06:50:15.625Z,102004.63
2024-01-19T06:52:42.246Z,102003.75
2024-01-19T06:55:09.402Z,101987.69
2024-01-19T06:57:36.048Z,102001.13
2024-01-19T07:00:02.997Z,102012.97
2024-01-19T07:02:29.666Z,101994.00
2024-01-19T07:04:56.293Z,102007.00
2024-01-19T07:07:22.953Z,102012.88
2024-01-19T07:09:49.673Z,102002.19
2024-01-19T07:12:18.319Z,102015.22
2024-01-19T07:14:45.238Z,102018.44
2024-01-19T07:17:15.381Z,102033.81
2024-01-19T07:19:43.488Z,102030.16
2024-01-19T07:22:10.538Z,102038.56
2024-01-19T07:24:37.613Z,102046.19
2024-01-19T07:27:05.893Z,102053.75
2024-01-19T07:29:33.088Z,102053.63
2024-01-19T07:32:00.991Z,102056.94
2024-01-19T07:34:27.897Z,102050.91
2024-01-19T07:36:54.705Z,102064.38
2024-01-19T07:39:24.901Z,102058.19
2024-01-19T07:41:54.708Z,102060.72
2024-01-19T07:44:21.657Z,102058.78
2024-01-19T07:46:49.477Z,102054.34
2024-01-19T07:49:21.998Z,102058.66
2024-01-19T07:51:50.257Z,102059.38
2024-01-19T07:54:18.878Z,102065.34
2024-01-19T07:56:45.651Z,102062.47
2024-01-19T07:59:12.388Z,102070.41
2024-01-19T08:01:40.547Z,102075.50
2024-01-19T08:04:07.322Z,102066.09
2024-01-19T08:06:34.233Z,102067.94
2024-01-19T08:09:01.042Z,102065.34
2024-01-19T08:11:27.817Z,102062.78
2024-01-19T08:13:54.436Z,102069.72
2024-01-19T08:16:21.196Z,102068.06
2024-01-19T08:18:47.999Z,102068.06
2024-01-19T08:21:14.817Z,102065.41
2024-01-19T08:23:41.479Z,102075.69
2024-01-19T08:26:08.366Z,102078.44
2024-01-19T08:28:35.149Z,102074.16
2024-01-19T08:31:01.842Z,102084.63
2024-01-19T08:33:28.680Z,102086.38
2024-01-19T08:35:55.463Z,102095.09
2024-01-19T08:38:22.107Z,102099.69
2024-01-19T08:40:48.894Z,102095.72
2024-01-19T08:43:15.733Z,102096.00
2024-01-19T08:45:42.696Z,102095.84
2024-01-19T08:48:09.736Z,102099.56
2024-01-19T08:50:36.596Z,102089.78
2024-01-19T08:53:04.193Z,102098.59
2024-01-19T08:55:31.026Z,102086.88
2024-01-19T08:57:57.738Z,102091.88
2024-01-19T09:00:24.435Z,102089.44
2024-01-19T09:03:03.706Z,102101.84
2024-01-19T09:05:31.937Z,102106.56
2024-01-19T09:07:58.983Z,102111.16
2024-01-19T09:10:25.781Z,102110.78
2024-01-19T09:12:52.569Z,102102.44
2024-01-19T09:15:19.359Z,102111.84
2024-01-19T09:17:46.135Z,102104.00
2024-01-19T09:20:13.332Z,102103.06
2024-01-19T09:22:40.261Z,102115.19
2024-01-19T09:25:07.382Z,102117.31
2024-01-19T09:27:34.395Z,102125.53
2024-01-19T09:30:01.275Z,102128.69
2024-01-19T09:32:28.222Z,102124.13
2024-01-19T09:34:55.072Z,102117.66
2024-01-19T09:37:21.798Z,102133.41
2024-01-19T09:39:48.447Z,102126.22
2024-01-19T09:42:28.242Z,102127.53
2024-01-19T09:45:06.791Z,102140.66
2024-01-19T09:48:03.149Z,102133.13
2024-01-19T09:50:35.982Z,102129.38
2024-01-19T09:53:06.198Z,102133.56
2024-01-19T09:55:32.994Z,102140.56
2024-01-19T09:57:59.646Z,102140.03
2024-01-19T10:00:26.715Z,102153.00
2024-01-19T10:03:00.093Z,102153.16
2024-01-19T10:05:29.013Z,102157.72
2024-01-19T10:07:58.940Z,102159.38
2024-01-19T10:10:27.311Z,102166.94
2024-01-19T10:12:54.126Z,102152.84
2024-01-19T10:15:20.934Z,102152.72
2024-01-19T10:17:47.838Z,102150.84
2024-01-19T10:20:16.582Z,102168.81
2024-01-19T10:22:43.658Z,102170.31
2024-01-19T10:25:15.143Z,102166.31
2024-01-19T10:27:43.404Z,102175.31
2024-01-19T10:30:11.371Z,102173.97
2024-01-19T10:32:40.377Z,102170.56
2024-01-19T10:35:16.090Z,102155.22
2024-01-19T10:37:43.323Z,102178.00
2024-01-19T10:40:20.359Z,102179.91
2024-01-19T10:42:49.497Z,102172.31
2024-01-19T10:45:16.627Z,102175.78
2024-01-19T10:47:44.866Z,102173.00
2024-01-19T10:50:16.046Z,102171.97
2024-01-19T10:52:47.555Z,102171.84
2024-01-19T10:55:18.540Z,102174.28
2024-01-19T10:57:45.548Z,102168.91
2024-01-19T11:00:29.497Z,102171.31
2024-01-19T11:02:58.386Z,102172.78
2024-01-19T11:05:26.077Z,102169.03
2024-01-19T11:07:54.335Z,102174.00
2024-01-19T11:10:22.100Z,102175.47
2024-01-19T11:13:01.214Z,102157.91
2024-01-19T11:15:49.083Z,102163.63
2024-01-19T11:18:16.435Z,102163.34
2024-01-19T11:20:43.462Z,102161.44
2024-01-19T11:23:10.669Z,102165.47
2024-01-19T11:25:52.700Z,102162.50
2024-01-19T11:28:31.052Z,102159.31
2024-01-19T11:31:18.704Z,102163.03
2024-01-19T11:33:45.671Z,102159.75
2024-01-19T11:36:33.454Z,102157.50
2024-01-19T11:39:00.481Z,102155.22
2024-01-19T11:41:33.972Z,102159.97
2024-01-19T11:44:02.145Z,102157.75
2024-01-19T11:46:48.358Z,102164.09
2024-01-19T11:49:30.575Z,102164.47
2024-01-19T11:52:02.732Z,102162.22
2024-01-19T11:54:33.434Z,102155.78
2024-01-19T11:57:19.990Z,102163.06
2024-01-19T11:59:47.513Z,102154.09
2024-01-19T12:02:24.639Z,102161.66
2024-01-19T12:04:53.053Z,102155.53
2024-01-19T12:07:21.573Z,102150.38
2024-01-19T12:10:07.798Z,102160.13
2024-01-19T12:12:35.282Z,102154.50
2024-01-19T12:17:41.600Z,102148.13
2024-01-19T12:20:11.151Z,102149.22
2024-01-19T12:22:38.451Z,102153.66
2024-01-19T12:25:15.122Z,102140.72
2024-01-19T12:27:42.079Z,102143.44
2024-01-19T12:30:16.837Z,102134.75
2024-01-19T12:32:45.060Z,102128.03
2024-01-19T12:35:14.707Z,102141.31
2024-01-19T12:37:42.469Z,102134.75
2024-01-19T12:40:20.089Z,102145.28
2024-01-19T12:42:47.120Z,102135.72
2024-01-19T12:45:15.468Z,102155.72
2024-01-19T12:47:44.116Z,102133.97
2024-01-19T12:50:16.808Z,102140.88
2024-01-19T12:52:49.190Z,102151.38
2024-01-19T12:55:15.847Z,102144.59
2024-01-19T12:57:50.367Z,102149.25
2024-01-19T13:00:17.774Z,102156.47
2024-01-19T13:02:44.688Z,102140.47
2024-01-19T13:05:43.832Z,102144.59
2024-01-19T13:08:11.533Z,102149.28
2024-01-19T13:10:38.978Z,102134.16
2024-01-19T13:13:10.930Z,102142.34
2024-01-19T13:15:38.395Z,102140.03
2024-01-19T13:18:12.601Z,102133.47
2024-01-19T13:20:47.102Z,102134.50
2024-01-19T13:23:14.261Z,102121.63
2024-01-19T13:25:41.146Z,102112.94
2024-01-19T13:28:08.194Z,102118.19
2024-01-19T13:30:35.380Z,102119.19
2024-01-19T13:33:02.879Z,102105.22
2024-01-19T13:35:30.399Z,102113.25
2024-01-19T13:37:57.868Z,102110.69
2024-01-19T13:40:25.132Z,102108.16
2024-01-19T13:42:52.703Z,102114.31
2024-01-19T13:45:19.576Z,102110.84
2024-01-19T13:47:46.266Z,102105.59
2024-01-19T13:50:13.115Z,102111.53
2024-01-19T13:52:40.635Z,102106.16
2024-01-19T13:55:07.896Z,102098.97
2024-01-19T13:57:34.666Z,102109.25
2024-01-19T14:00:01.267Z,102113.44
2024-01-19T14:02:29.121Z,102111.44
2024-01-19T14:04:57.947Z,102107.88
2024-01-19T14:07:25.993Z,102114.78
2024-01-19T14:09:53.258Z,102116.47
2024-01-19T14:12:20.355Z,102113.75
2024-01-19T14:14:48.946Z,102107.53
2024-01-19T14:17:15.787Z,102130.13
2024-01-19T14:19:42.746Z,102117.97
2024-01-19T14:22:09.502Z,102122.19
2024-01-19T14:24:36.312Z,102115.00
2024-01-19T14:27:03.465Z,102118.34
2024-01-19T14:29:32.342Z,102128.56
2024-01-19T14:32:01.636Z,102122.56
2024-01-19T14:34:36.014Z,102134.53
2024-01-19T14:37:11.307Z,102131.03
2024-01-19T14:39:40.799Z,102134.44
2024-01-19T14:42:07.646Z,102149.88
2024-01-19T14:44:34.350Z,102153.22
2024-01-19T14:47:01.905Z,102145.34
2024-01-19T14:49:33.948Z,102147.72
2024-01-19T14:52:01.672Z,102156.34
2024-01-19T14:54:31.292Z,102164.97
2024-01-19T14:56:58.711Z,102174.28
2024-01-19T14:59:25.317Z,102165.53
2024-01-19T15:01:53.180Z,102168.91
2024-01-19T15:04:20.038Z,102178.31
2024-01-19T15:06:47.124Z,102178.19
2024-01-19T15:09:13.782Z,102172.75
2024-01-19T15:11:40.477Z,102181.31
2024-01-19T15:14:07.209Z,102174.19
2024-01-19T15:16:34.015Z,102184.31
2024-01-19T15:19:01.336Z,102191.81
2024-01-19T15:21:28.472Z,102185.50
2024-01-19T15:23:55.419Z,102174.59
2024-01-19T15:26:22.201Z,102190.16
2024-01-19T15:28:49.342Z,102196.78
2024-01-19T15:31:21.360Z,102198.22
2024-01-19T15:33:48.258Z,102203.09
2024-01-19T15:36:15.037Z,102201.03
2024-01-19T15:38:41.724Z,102200.69
2024-01-19T15:41:08.515Z,102202.13
2024-01-19T15:43:36.285Z,102201.81
2024-01-19T15:46:03.133Z,102203.13
2024-01-19T15:48:29.810Z,102207.09
2024-01-19T15:50:56.496Z,102206.75
2024-01-19T15:53:24.013Z,102197.00
2024-01-19T15:55:50.621Z,102217.47
2024-01-19T15:58:17.497Z,102218.84
2024-01-19T16:00:44.187Z,102211.59
2024-01-19T16:03:13.025Z,102206.03
2024-01-19T16:05:40.181Z,102220.56
2024-01-19T16:08:07.180Z,102210.94
2024-01-19T16:10:33.939Z,102213.22
2024-01-19T16:13:00.724Z,102214.66
2024-01-19T16:15:27.417Z,102215.22
2024-01-19T16:17:54.238Z,102218.44
2024-01-19T16:20:20.989Z,102217.25
2024-01-19T16:22:47.819Z,102228.13
2024-01-19T16:25:14.501Z,102221.88
2024-01-19T16:27:41.151Z,102223.31
2024-01-19T16:30:07.971Z,102225.56
2024-01-19T16:32:34.625Z,102217.41
2024-01-19T16:35:01.485Z,102219.66
2024-01-19T16:37:28.382Z,102228.94
2024-01-19T16:39:55.095Z,102229.56
2024-01-19T16:42:21.764Z,102225.78
2024-01-19T16:44:48.447Z,102234.19
2024-01-19T16:47:15.147Z,102238.25
2024-01-19T16:49:41.820Z,102233.66
2024-01-19T16:52:08.683Z,102242.94
2024-01-19T16:54:35.325Z,102241.78
2024-01-19T16:57:06.825Z,102251.09
2024-01-19T16:59:36.327Z,102240.44
2024-01-19T17:02:03.085Z,102249.91
2024-01-19T17:04:30.677Z,102244.50
2024-01-19T17:06:57.394Z,102252.84
2024-01-19T17:09:24.083Z,102252.84
2024-01-19T17:11:51.493Z,102245.66
2024-01-19T17:14:18.284Z,102246.44
2024-01-19T17:16:45.578Z,102253.16
2024-01-19T17:19:13.344Z,102250.31
2024-01-19T17:21:41.411Z,102254.47
2024-01-19T17:24:09.288Z,102265.53
2024-01-19T17:26:40.420Z,102269.66
2024-01-19T17:29:07.242Z,102262.69
2024-01-19T17:31:34.761Z,102277.13
2024-01-19T17:34:08.472Z,102265.84
2024-01-19T17:36:37.819Z,102259.53
2024-01-19T17:39:05.497Z,102267.31
2024-01-19T17:41:32.438Z,102254.91
2024-01-19T17:43:59.893Z,102264.25
2024-01-19T17:46:27.346Z,102271.16
2024-01-19T17:48:54.265Z,102267.47
2024-01-19T17:51:22.290Z,102264.66
2024-01-19T17:53:50.807Z,102258.53
2024-01-19T17:56:17.644Z,102265.28
2024-01-19T17:58:44.656Z,102263.38
2024-01-19T18:01:11.425Z,102268.34
2024-01-19T18:03:40.026Z,102266.31
2024-01-19T18:06:08.149Z,102259.25
2024-01-19T18:08:35.424Z,102268.59
2024-01-19T18:11:03.575Z,102272.75
2024-01-19T18:13:30.877Z,102279.34
2024-01-19T18:15:58.311Z,102278.88
2024-01-19T18:18:31.523Z,102268.91
2024-01-19T18:21:02.449Z,102281.97
2024-01-19T18:23:29.201Z,102293.03
2024-01-19T18:25:56.098Z,102294.25
2024-01-19T18:28:23.839Z,102293.88
2024-01-19T18:30:54.105Z,102296.44
2024-01-19T18:33:21.278Z,102302.03
2024-01-19T18:35:48.487Z,102298.38
2024-01-19T18:38:15.453Z,102287.41
2024-01-19T18:40:42.398Z,102296.94
2024-01-19T18:43:09.089Z,102289.75
2024-01-19T18:45:35.890Z,102284.47
2024-01-19T18:48:05.501Z,102293.28
2024-01-19T18:50:32.958Z,102298.41
2024-01-19T18:53:00.409Z,102303.66
2024-01-19T18:55:27.708Z,102305.44
2024-01-19T18:57:54.630Z,102307.19
2024-01-19T19:00:22.205Z,102305.53
2024-01-19T19:02:50.082Z,102300.97
2024-01-19T19:05:16.902Z,102305.56
2024-01-19T19:07:44.685Z,102307.19
2024-01-19T19:10:11.552Z,102321.91
2024-01-19T19:12:38.724Z,102307.19
2024-01-19T19:15:07.673Z,102312.31
2024-01-19T19:17:36.287Z,102321.84
2024-01-19T19:20:03.689Z,102325.78
2024-01-19T19:22:30.402Z,102329.19
2024-01-19T19:24:57.117Z,102334.50
2024-01-19T19:27:23.787Z,102337.06
2024-01-19T19:29:51.004Z,102333.53
2024-01-19T19:32:17.789Z,102332.72
2024-01-19T19:34:46.506Z,102324.03
2024-01-19T19:37:13.333Z,102325.59
2024-01-19T19:39:40.023Z,102328.97
2024-01-19T19:42:06.868Z,102311.59
2024-01-19T19:44:34.876Z,102323.69
2024-01-19T19:47:01.669Z,102325.28
2024-01-19T19:49:28.383Z,102328.50
2024-01-19T19:51:56.551Z,102330.97
2024-01-19T19:54:24.191Z,102313.19
2024-01-19T19:56:50.882Z,102327.28
2024-01-19T19:59:17.652Z,102334.09
2024-01-19T20:01:48.182Z,102337.31
2024-01-19T20:04:15.969Z,102331.06
2024-01-19T20:06:42.790Z,102339.69
2024-01-19T20:09:09.792Z,102341.44
2024-01-19T20:11:37.722Z,102340.66
2024-01-19T20:14:05.005Z,102341.22
2024-01-19T20:16:31.998Z,102351.34
2024-01-19T20:18:59.310Z,102342.22
2024-01-19T20:21:26.364Z,102354.38
2024-01-19T20:23:53.546Z,102355.03
2024-01-19T20:26:20.863Z,102351.00
2024-01-19T20:28:48.378Z,102370.84
2024-01-19T20:31:15.237Z,102359.31
2024-01-19T20:33:42.814Z,102374.03
2024-01-19T20:36:09.828Z,102373.69
2024-01-19T20:38:37.458Z,102380.59
2024-01-19T20:41:04.521Z,102371.78
2024-01-19T20:43:31.452Z,102370.16
2024-01-19T20:45:58.184Z,102370.94
2024-01-19T20:48:24.956Z,102372.56
2024-01-19T20:50:51.706Z,102364.56
2024-01-19T20:53:18.452Z,102374.94
2024-01-19T20:55:47.063Z,102370.56
2024-01-19T20:58:13.968Z,102377.44
2024-01-19T21:00:41.452Z,102367.91
2024-01-19T21:03:10.451Z,102356.34
2024-01-19T21:05:38.173Z,102357.41
2024-01-19T21:08:05.702Z,102371.09
2024-01-19T21:10:33.465Z,102354.41
2024-01-19T21:13:00.263Z,102363.31
2024-01-19T21:15:28.067Z,102371.69
2024-01-19T21:17:55.265Z,102373.47
2024-01-19T21:20:24.137Z,102382.75
2024-01-19T21:22:52.865Z,102374.78
2024-01-19T21:25:21.697Z,102388.75
2024-01-19T21:27:48.622Z,102386.78
2024-01-19T21:30:15.429Z,102400.66
2024-01-19T21:32:42.189Z,102396.16
2024-01-19T21:35:10.020Z,102398.09
2024-01-19T21:37:36.920Z,102396.25
2024-01-19T21:40:05.627Z,102407.47
2024-01-19T21:42:32.754Z,102392.66
2024-01-19T21:45:00.154Z,102404.81
2024-01-19T21:47:26.991Z,102396.88
2024-01-19T21:49:54.340Z,102395.81
2024-01-19T21:52:22.613Z,102394.38
2024-01-19T21:54:50.240Z,102394.38
2024-01-19T21:57:17.100Z,102403.75
2024-01-19T21:59:43.953Z,102401.09
2024-01-19T22:02:11.290Z,102402.88
2024-01-19T22:04:38.654Z,102391.41
2024-01-19T22:07:06.813Z,102398.34
2024-01-19T22:09:33.858Z,102393.00
2024-01-19T22:12:00.744Z,102392.28
2024-01-19T22:14:28.267Z,102390.53
2024-01-19T22:16:55.269Z,102387.53
2024-01-19T22:19:22.737Z,102398.84
2024-01-19T22:21:50.379Z,102393.53
2024-01-19T22:24:17.305Z,102398.47
2024-01-19T22:26:45.157Z,102400.06
2024-01-19T22:29:13.100Z,102397.50
2024-01-19T22:31:40.433Z,102396.50
2024-01-19T22:34:09.404Z,102391.16
2024-01-19T22:36:38.638Z,102392.81
2024-01-19T22:39:05.443Z,102400.50
2024-01-19T22:41:32.645Z,102385.56
2024-01-19T22:44:00.154Z,102397.78
2024-01-19T22:46:27.774Z,102399.59
2024-01-19T22:48:54.787Z,102399.69
2024-01-19T22:51:21.874Z,102400.69
2024-01-19T22:53:50.264Z,102397.03
2024-01-19T22:56:17.155Z,102404.97
2024-01-19T22:58:44.307Z,102397.31
2024-01-19T23:01:11.474Z,102408.50
2024-01-19T23:03:38.333Z,102402.63
2024-01-19T23:06:05.483Z,102400.06
2024-01-19T23:08:32.205Z,102395.91
2024-01-19T23:10:59.354Z,102400.22
2024-01-19T23:13:26.368Z,102400.31
2024-01-19T23:15:53.537Z,102405.53
2024-01-19T23:18:21.177Z,102407.28
2024-01-19T23:20:48.150Z,102415.13
2024-01-19T23:23:15.270Z,102416.81
2024-01-19T23:25:42.391Z,102416.81
2024-01-19T23:28:10.645Z,102415.91
2024-01-19T23:30:38.497Z,102415.75
2024-01-19T23:33:05.973Z,102415.03
2024-01-19T23:35:33.146Z,102409.84
2024-01-19T23:38:00.361Z,102411.44
2024-01-19T23:40:27.751Z,102407.09
2024-01-19T23:42:56.422Z,102401.09
2024-01-19T23:45:26.101Z,102397.50
2024-01-19T23:47:55.267Z,102404.97
2024-01-19T23:50:22.904Z,102408.50
2024-01-19T23:52:50.100Z,102398.91
2024-01-19T23:55:17.630Z,102399.84
2024-01-19T23:57:45.478Z,102404.03
